createdAt,value
2019-01-24T00:00:35.110Z,-8.26
2019-01-24T00:01:35.108Z,-8.26
2019-01-24T00:02:35.103Z,-8.15
2019-01-24T00:03:35.104Z,-8.11
2019-01-24T00:04:35.105Z,-8.19
2019-01-24T00:05:35.104Z,-8.08
2019-01-24T00:06:35.108Z,-8.05
2019-01-24T00:07:35.105Z,-8.02
2019-01-24T00:08:35.106Z,-8.01
2019-01-24T00:09:35.106Z,-8.02
2019-01-24T00:10:35.106Z,-8.12
2019-01-24T00:11:35.108Z,-8.02
2019-01-24T00:12:35.107Z,-8.06
2019-01-24T00:13:35.106Z,-7.96
2019-01-24T00:14:35.105Z,-7.93
2019-01-24T00:15:35.106Z,-8.01
2019-01-24T00:16:35.106Z,-8.01
2019-01-24T00:17:35.109Z,-7.99
2019-01-24T00:18:35.109Z,-7.99
2019-01-24T00:19:35.109Z,-7.99
2019-01-24T00:20:35.106Z,-8.13
2019-01-24T00:21:35.109Z,-8.13
2019-01-24T00:22:35.108Z,-8.15
2019-01-24T00:23:35.108Z,-8.15
2019-01-24T00:24:35.111Z,-8.18
2019-01-24T00:25:35.109Z,-8.16
2019-01-24T00:26:35.110Z,-8.12
2019-01-24T00:27:35.109Z,-8.24
2019-01-24T00:28:35.108Z,-8.18
2019-01-24T00:29:35.111Z,-8.23
2019-01-24T00:30:35.116Z,-8.23
2019-01-24T00:31:35.108Z,-8.21
2019-01-24T00:32:35.109Z,-8.18
2019-01-24T00:33:35.110Z,-8.16
2019-01-24T00:34:35.110Z,-8.23
2019-01-24T00:35:35.109Z,-8.31
2019-01-24T00:36:35.108Z,-8.23
2019-01-24T00:37:35.113Z,-8.21
2019-01-24T00:38:35.109Z,-8.27
2019-01-24T00:39:35.113Z,-8.27
2019-01-24T00:40:35.116Z,-8.30
2019-01-24T00:41:35.110Z,-8.40
2019-01-24T00:42:35.110Z,-8.40
2019-01-24T00:43:35.109Z,-8.42
2019-01-24T00:44:35.111Z,-8.36
2019-01-24T00:45:35.112Z,-8.42
2019-01-24T00:46:35.109Z,-8.42
2019-01-24T00:47:35.110Z,-8.42
2019-01-24T00:48:35.112Z,-8.39
2019-01-24T00:49:35.110Z,-8.40
2019-01-24T00:50:35.110Z,-8.40
2019-01-24T00:51:35.111Z,-8.34
2019-01-24T00:52:35.114Z,-8.29
2019-01-24T00:53:35.115Z,-8.21
2019-01-24T00:54:35.110Z,-8.33
2019-01-24T00:55:35.113Z,-8.26
2019-01-24T00:56:35.115Z,-8.26
2019-01-24T00:57:35.111Z,-8.33
2019-01-24T00:58:35.117Z,-8.36
2019-01-24T00:59:35.111Z,-8.33
2019-01-24T01:00:35.113Z,-8.37
2019-01-24T01:01:35.111Z,-8.37
2019-01-24T01:02:35.111Z,-8.40
2019-01-24T01:03:35.112Z,-8.39
2019-01-24T01:04:35.115Z,-8.40
2019-01-24T01:05:35.112Z,-8.37
2019-01-24T01:06:35.113Z,-8.34
2019-01-24T01:07:35.112Z,-8.45
2019-01-24T01:08:35.111Z,-8.36
2019-01-24T01:09:35.115Z,-8.48
2019-01-24T01:10:35.112Z,-8.37
2019-01-24T01:11:35.111Z,-8.47
2019-01-24T01:12:35.112Z,-8.47
2019-01-24T01:13:35.114Z,-8.50
2019-01-24T01:14:35.110Z,-8.39
2019-01-24T01:15:35.112Z,-8.42
2019-01-24T01:16:35.110Z,-8.33
2019-01-24T01:17:35.111Z,-8.34
2019-01-24T01:18:35.112Z,-8.42
2019-01-24T01:19:35.109Z,-8.40
2019-01-24T01:20:35.114Z,-8.57
2019-01-24T01:21:35.113Z,-8.45
2019-01-24T01:22:35.109Z,-8.48
2019-01-24T01:23:35.113Z,-8.45
2019-01-24T01:24:35.109Z,-8.51
2019-01-24T01:25:35.110Z,-8.51
2019-01-24T01:26:35.110Z,-8.54
2019-01-24T01:27:35.115Z,-8.51
2019-01-24T01:28:35.111Z,-8.62
2019-01-24T01:29:35.107Z,-8.55
2019-01-24T01:30:35.111Z,-8.58
2019-01-24T01:31:35.108Z,-8.52
2019-01-24T01:32:35.108Z,-8.66
2019-01-24T01:33:35.110Z,-8.66
2019-01-24T01:34:36.383Z,-8.55
2019-01-24T01:35:35.107Z,-8.50
2019-01-24T01:36:35.109Z,-8.51
2019-01-24T01:37:35.108Z,-8.52
2019-01-24T01:38:35.109Z,-8.48
2019-01-24T01:39:35.108Z,-8.47
2019-01-24T01:40:35.105Z,-8.51
2019-01-24T01:41:35.110Z,-8.51
2019-01-24T01:42:35.106Z,-8.52
2019-01-24T01:43:35.105Z,-8.51
2019-01-24T01:44:35.106Z,-8.48
2019-01-24T01:45:35.107Z,-8.60
2019-01-24T01:46:35.108Z,-8.58
2019-01-24T01:47:35.105Z,-8.63
2019-01-24T01:48:35.106Z,-8.50
2019-01-24T01:49:35.106Z,-8.60
2019-01-24T01:50:35.104Z,-8.52
2019-01-24T01:51:35.104Z,-8.65
2019-01-24T01:52:35.104Z,-8.66
2019-01-24T01:53:35.105Z,-8.65
2019-01-24T01:54:35.106Z,-8.76
2019-01-24T01:55:35.128Z,-8.81
2019-01-24T01:56:35.106Z,-8.72
2019-01-24T01:57:35.103Z,-8.76
2019-01-24T01:58:35.105Z,-8.81
2019-01-24T01:59:35.104Z,-8.84
2019-01-24T02:00:35.125Z,-8.87
2019-01-24T02:01:35.104Z,-8.89
2019-01-24T02:02:35.104Z,-8.86
2019-01-24T02:03:35.100Z,-8.90
2019-01-24T02:04:35.105Z,-8.94
2019-01-24T02:05:35.103Z,-8.93
2019-01-24T02:06:35.108Z,-8.94
2019-01-24T02:07:35.102Z,-8.89
2019-01-24T02:08:35.098Z,-8.91
2019-01-24T02:09:35.098Z,-8.93
2019-01-24T02:10:35.099Z,-8.98
2019-01-24T02:11:35.099Z,-9.07
2019-01-24T02:12:35.095Z,-9.02
2019-01-24T02:13:35.097Z,-8.98
2019-01-24T02:14:35.098Z,-9.01
2019-01-24T02:15:35.094Z,-9.04
2019-01-24T02:16:35.095Z,-9.07
2019-01-24T02:17:35.099Z,-8.91
2019-01-24T02:18:35.091Z,-9.04
2019-01-24T02:19:35.091Z,-8.96
2019-01-24T02:20:35.094Z,-8.94
2019-01-24T02:21:35.090Z,-8.89
2019-01-24T02:22:35.090Z,-8.87
2019-01-24T02:23:35.088Z,-8.80
2019-01-24T02:24:35.087Z,-8.83
2019-01-24T02:25:35.089Z,-8.86
2019-01-24T02:26:35.088Z,-8.81
2019-01-24T02:27:35.086Z,-8.80
2019-01-24T02:28:35.087Z,-8.80
2019-01-24T02:29:35.087Z,-8.81
2019-01-24T02:30:35.084Z,-8.80
2019-01-24T02:31:35.082Z,-8.91
2019-01-24T02:32:35.085Z,-8.89
2019-01-24T02:33:35.084Z,-8.87
2019-01-24T02:34:35.081Z,-8.90
2019-01-24T02:35:35.082Z,-8.96
2019-01-24T02:36:35.081Z,-8.98
2019-01-24T02:37:35.081Z,-9.04
2019-01-24T02:38:35.081Z,-9.01
2019-01-24T02:39:35.077Z,-8.96
2019-01-24T02:40:35.077Z,-8.98
2019-01-24T02:41:35.078Z,-8.90
2019-01-24T02:42:35.079Z,-8.94
2019-01-24T02:43:35.077Z,-8.90
2019-01-24T02:44:35.076Z,-8.91
2019-01-24T02:45:35.075Z,-8.93
2019-01-24T02:46:35.075Z,-9.02
2019-01-24T02:47:35.074Z,-9.01
2019-01-24T02:48:35.073Z,-9.07
2019-01-24T02:49:35.071Z,-9.10
2019-01-24T02:50:35.072Z,-9.11
2019-01-24T02:51:35.077Z,-9.11
2019-01-24T02:52:35.069Z,-9.08
2019-01-24T02:53:35.071Z,-9.12
2019-01-24T02:54:35.071Z,-9.10
2019-01-24T02:55:35.068Z,-9.07
2019-01-24T02:56:35.067Z,-9.05
2019-01-24T02:57:35.069Z,-9.00
2019-01-24T02:58:35.068Z,-9.08
2019-01-24T02:59:35.066Z,-9.05
2019-01-24T03:00:35.063Z,-9.15
2019-01-24T03:01:35.064Z,-9.18
2019-01-24T03:02:35.073Z,-9.12
2019-01-24T03:03:35.066Z,-9.20
2019-01-24T03:04:35.064Z,-9.12
2019-01-24T03:05:35.064Z,-9.18
2019-01-24T03:06:35.065Z,-9.15
2019-01-24T03:07:35.062Z,-9.12
2019-01-24T03:08:35.063Z,-9.12
2019-01-24T03:09:35.061Z,-9.18
2019-01-24T03:10:35.058Z,-9.22
2019-01-24T03:11:35.062Z,-9.15
2019-01-24T03:12:35.056Z,-9.20
2019-01-24T03:13:35.063Z,-9.23
2019-01-24T03:14:35.058Z,-9.28
2019-01-24T03:15:35.052Z,-9.25
2019-01-24T03:16:35.052Z,-9.30
2019-01-24T03:17:35.052Z,-9.30
2019-01-24T03:18:35.051Z,-9.32
2019-01-24T03:19:35.051Z,-9.25
2019-01-24T03:20:35.047Z,-9.28
2019-01-24T03:21:35.050Z,-9.29
2019-01-24T03:22:35.049Z,-9.23
2019-01-24T03:23:35.045Z,-9.25
2019-01-24T03:24:35.044Z,-9.23
2019-01-24T03:25:35.043Z,-9.30
2019-01-24T03:26:35.049Z,-9.23
2019-01-24T03:27:35.043Z,-9.22
2019-01-24T03:28:35.042Z,-9.25
2019-01-24T03:29:35.040Z,-9.23
2019-01-24T03:30:35.040Z,-9.12
2019-01-24T03:31:35.040Z,-9.28
2019-01-24T03:32:35.042Z,-9.33
2019-01-24T03:33:35.037Z,-9.32
2019-01-24T03:34:35.036Z,-9.29
2019-01-24T03:35:35.038Z,-9.29
2019-01-24T03:36:35.034Z,-9.29
2019-01-24T03:37:35.033Z,-9.30
2019-01-24T03:38:35.033Z,-9.22
2019-01-24T03:39:35.031Z,-9.20
2019-01-24T03:40:35.031Z,-9.32
2019-01-24T03:41:35.031Z,-9.26
2019-01-24T03:42:35.031Z,-9.28
2019-01-24T03:43:35.027Z,-9.20
2019-01-24T03:44:35.027Z,-9.20
2019-01-24T03:45:35.025Z,-9.19
2019-01-24T03:46:35.025Z,-9.22
2019-01-24T03:47:35.024Z,-9.23
2019-01-24T03:48:35.022Z,-9.19
2019-01-24T03:49:35.022Z,-9.12
2019-01-24T03:50:35.033Z,-9.25
2019-01-24T03:51:35.019Z,-9.10
2019-01-24T03:52:35.019Z,-9.19
2019-01-24T03:53:35.017Z,-9.10
2019-01-24T03:54:35.015Z,-9.19
2019-01-24T03:55:35.013Z,-9.26
2019-01-24T03:56:35.019Z,-9.20
2019-01-24T03:57:35.016Z,-9.14
2019-01-24T03:58:35.011Z,-9.20
2019-01-24T03:59:35.009Z,-9.20
2019-01-24T04:00:35.010Z,-9.25
2019-01-24T04:01:35.009Z,-9.23
2019-01-24T04:02:35.009Z,-9.30
2019-01-24T04:03:35.007Z,-9.28
2019-01-24T04:04:35.013Z,-9.30
2019-01-24T04:05:35.006Z,-9.25
2019-01-24T04:06:35.006Z,-9.25
2019-01-24T04:07:35.001Z,-9.32
2019-01-24T04:08:35.004Z,-9.29
2019-01-24T04:09:35.003Z,-9.36
2019-01-24T04:10:35.002Z,-9.32
2019-01-24T04:11:35.000Z,-9.30
2019-01-24T04:12:34.999Z,-9.36
2019-01-24T04:13:34.995Z,-9.37
2019-01-24T04:14:34.995Z,-9.45
2019-01-24T04:15:34.997Z,-9.45
2019-01-24T04:16:34.992Z,-9.47
2019-01-24T04:17:34.993Z,-9.47
2019-01-24T04:18:34.991Z,-9.47
2019-01-24T04:19:34.990Z,-9.50
2019-01-24T04:20:34.988Z,-9.54
2019-01-24T04:21:34.987Z,-9.47
2019-01-24T04:22:34.998Z,-9.47
2019-01-24T04:23:34.983Z,-9.50
2019-01-24T04:24:34.983Z,-9.47
2019-01-24T04:25:34.981Z,-9.48
2019-01-24T04:26:34.981Z,-9.51
2019-01-24T04:27:34.982Z,-9.52
2019-01-24T04:28:34.978Z,-9.51
2019-01-24T04:29:34.978Z,-9.50
2019-01-24T04:30:34.976Z,-9.48
2019-01-24T04:31:34.972Z,-9.51
2019-01-24T04:32:34.972Z,-9.41
2019-01-24T04:33:34.981Z,-9.45
2019-01-24T04:34:34.972Z,-9.58
2019-01-24T04:35:34.970Z,-9.44
2019-01-24T04:36:34.968Z,-9.48
2019-01-24T04:37:34.969Z,-9.50
2019-01-24T04:38:34.970Z,-9.50
2019-01-24T04:39:34.964Z,-9.52
2019-01-24T04:40:34.962Z,-9.45
2019-01-24T04:41:34.963Z,-9.44
2019-01-24T04:42:34.960Z,-9.50
2019-01-24T04:43:34.963Z,-9.50
2019-01-24T04:44:34.960Z,-9.63
2019-01-24T04:45:34.957Z,-9.62
2019-01-24T04:46:34.958Z,-9.51
2019-01-24T04:47:34.953Z,-9.54
2019-01-24T04:48:34.954Z,-9.51
2019-01-24T04:49:34.951Z,-9.52
2019-01-24T04:50:34.951Z,-9.62
2019-01-24T04:51:34.948Z,-9.66
2019-01-24T04:52:34.948Z,-9.65
2019-01-24T04:53:34.946Z,-9.71
2019-01-24T04:54:34.948Z,-9.80
2019-01-24T04:55:34.943Z,-9.76
2019-01-24T04:56:34.945Z,-9.79
2019-01-24T04:57:34.945Z,-9.80
2019-01-24T04:58:34.941Z,-9.83
2019-01-24T04:59:34.939Z,-9.80
2019-01-24T05:00:34.939Z,-9.80
2019-01-24T05:01:34.937Z,-9.83
2019-01-24T05:02:34.933Z,-9.81
2019-01-24T05:03:34.933Z,-9.79
2019-01-24T05:04:34.931Z,-9.71
2019-01-24T05:05:34.934Z,-9.66
2019-01-24T05:06:34.929Z,-9.74
2019-01-24T05:07:34.924Z,-9.66
2019-01-24T05:08:34.926Z,-9.65
2019-01-24T05:09:34.922Z,-9.54
2019-01-24T05:10:34.919Z,-9.56
2019-01-24T05:11:34.925Z,-9.51
2019-01-24T05:12:34.917Z,-9.56
2019-01-24T05:13:34.918Z,-9.51
2019-01-24T05:14:34.918Z,-9.47
2019-01-24T05:15:34.914Z,-9.52
2019-01-24T05:16:34.912Z,-9.45
2019-01-24T05:17:34.926Z,-9.50
2019-01-24T05:18:34.909Z,-9.45
2019-01-24T05:19:34.909Z,-9.51
2019-01-24T05:20:34.916Z,-9.48
2019-01-24T05:21:34.910Z,-9.47
2019-01-24T05:22:34.909Z,-9.50
2019-01-24T05:23:34.901Z,-9.41
2019-01-24T05:24:34.902Z,-9.44
2019-01-24T05:25:34.902Z,-9.32
2019-01-24T05:26:34.899Z,-9.29
2019-01-24T05:27:34.903Z,-9.30
2019-01-24T05:28:34.895Z,-9.25
2019-01-24T05:29:34.894Z,-9.30
2019-01-24T05:30:34.895Z,-9.30
2019-01-24T05:31:34.891Z,-9.28
2019-01-24T05:32:34.891Z,-9.26
2019-01-24T05:33:34.888Z,-9.22
2019-01-24T05:34:34.891Z,-9.22
2019-01-24T05:35:35.158Z,-9.25
2019-01-24T05:36:34.885Z,-9.22
2019-01-24T05:37:34.886Z,-9.25
2019-01-24T05:38:34.890Z,-9.26
2019-01-24T05:39:34.887Z,-9.10
2019-01-24T05:40:34.881Z,-9.25
2019-01-24T05:41:34.883Z,-9.20
2019-01-24T05:42:34.877Z,-9.19
2019-01-24T05:43:34.880Z,-9.19
2019-01-24T05:44:34.876Z,-9.22
2019-01-24T05:45:34.874Z,-9.20
2019-01-24T05:46:34.879Z,-9.20
2019-01-24T05:47:34.870Z,-9.15
2019-01-24T05:48:34.870Z,-9.19
2019-01-24T05:49:34.870Z,-9.25
2019-01-24T05:50:34.873Z,-9.19
2019-01-24T05:51:34.865Z,-9.18
2019-01-24T05:52:34.865Z,-9.20
2019-01-24T05:53:34.868Z,-9.10
2019-01-24T05:54:34.862Z,-9.01
2019-01-24T05:55:34.865Z,-9.05
2019-01-24T05:56:34.862Z,-9.04
2019-01-24T05:57:34.861Z,-9.08
2019-01-24T05:58:34.859Z,-9.04
2019-01-24T05:59:34.856Z,-9.02
2019-01-24T06:00:34.852Z,-9.00
2019-01-24T06:01:34.857Z,-8.84
2019-01-24T06:02:34.852Z,-8.83
2019-01-24T06:03:34.851Z,-8.83
2019-01-24T06:04:34.854Z,-9.00
2019-01-24T06:05:41.574Z,-9.19
2019-01-24T06:06:34.856Z,-9.20
2019-01-24T06:07:34.848Z,-9.20
2019-01-24T06:08:34.851Z,-9.25
2019-01-24T06:09:34.846Z,-9.32
2019-01-24T06:10:34.848Z,-9.36
2019-01-24T06:11:34.846Z,-9.25
2019-01-24T06:12:34.840Z,-9.32
2019-01-24T06:13:34.840Z,-9.30
2019-01-24T06:14:34.841Z,-9.30
2019-01-24T06:15:34.838Z,-9.33
2019-01-24T06:16:34.845Z,-9.26
2019-01-24T06:17:34.840Z,-9.22
2019-01-24T06:18:34.842Z,-9.25
2019-01-24T06:19:34.837Z,-9.15
2019-01-24T06:20:34.837Z,-9.14
2019-01-24T06:21:34.833Z,-9.19
2019-01-24T06:22:34.834Z,-9.15
2019-01-24T06:23:34.844Z,-9.15
2019-01-24T06:24:34.833Z,-9.04
2019-01-24T06:25:34.835Z,-9.04
2019-01-24T06:26:34.834Z,-9.02
2019-01-24T06:27:34.826Z,-9.19
2019-01-24T06:28:34.830Z,-9.19
2019-01-24T06:29:34.826Z,-9.10
2019-01-24T06:30:34.827Z,-9.08
2019-01-24T06:31:34.828Z,-9.12
2019-01-24T06:32:34.822Z,-9.22
2019-01-24T06:33:34.824Z,-9.30
2019-01-24T06:34:34.823Z,-9.33
2019-01-24T06:35:34.824Z,-9.48
2019-01-24T06:36:34.817Z,-9.45
2019-01-24T06:37:34.817Z,-9.48
2019-01-24T06:38:34.816Z,-9.45
2019-01-24T06:39:34.814Z,-9.47
2019-01-24T06:40:34.812Z,-9.58
2019-01-24T06:41:34.812Z,-9.66
2019-01-24T06:42:34.812Z,-9.68
2019-01-24T06:43:34.809Z,-9.59
2019-01-24T06:44:34.805Z,-9.47
2019-01-24T06:45:34.805Z,-9.50
2019-01-24T06:46:34.806Z,-9.33
2019-01-24T06:47:34.802Z,-9.30
2019-01-24T06:48:34.802Z,-9.23
2019-01-24T06:49:34.802Z,-9.15
2019-01-24T06:50:34.799Z,-9.18
2019-01-24T06:51:34.799Z,-9.23
2019-01-24T06:52:34.798Z,-9.15
2019-01-24T06:53:34.797Z,-9.19
2019-01-24T06:54:34.797Z,-9.07
2019-01-24T06:55:34.794Z,-9.18
2019-01-24T06:56:34.793Z,-9.05
2019-01-24T06:57:34.791Z,-9.08
2019-01-24T06:58:34.793Z,-9.10
2019-01-24T06:59:34.789Z,-9.01
2019-01-24T07:00:34.786Z,-9.00
2019-01-24T07:01:34.788Z,-9.04
2019-01-24T07:02:34.788Z,-8.91
2019-01-24T07:03:34.784Z,-8.94
2019-01-24T07:04:34.783Z,-8.96
2019-01-24T07:05:34.784Z,-8.83
2019-01-24T07:06:34.784Z,-8.83
2019-01-24T07:07:34.779Z,-8.87
2019-01-24T07:08:34.778Z,-8.80
2019-01-24T07:09:34.779Z,-8.84
2019-01-24T07:10:34.779Z,-8.83
2019-01-24T07:11:34.776Z,-8.73
2019-01-24T07:12:34.778Z,-8.70
2019-01-24T07:13:34.775Z,-8.73
2019-01-24T07:14:34.778Z,-8.70
2019-01-24T07:15:34.774Z,-8.66
2019-01-24T07:16:34.775Z,-8.66
2019-01-24T07:17:34.772Z,-8.68
2019-01-24T07:18:34.771Z,-8.69
2019-01-24T07:19:34.768Z,-8.65
2019-01-24T07:20:34.769Z,-8.66
2019-01-24T07:21:34.772Z,-8.62
2019-01-24T07:22:34.772Z,-8.55
2019-01-24T07:23:34.767Z,-8.69
2019-01-24T07:24:34.767Z,-8.66
2019-01-24T07:25:34.768Z,-8.68
2019-01-24T07:26:34.766Z,-8.66
2019-01-24T07:27:34.762Z,-8.55
2019-01-24T07:28:34.766Z,-8.57
2019-01-24T07:29:34.762Z,-8.55
2019-01-24T07:30:34.764Z,-8.52
2019-01-24T07:31:34.762Z,-8.48
2019-01-24T07:32:34.764Z,-8.44
2019-01-24T07:33:34.761Z,-8.55
2019-01-24T07:34:34.762Z,-8.45
2019-01-24T07:35:34.760Z,-8.47
2019-01-24T07:36:34.772Z,-8.44
2019-01-24T07:37:34.758Z,-8.39
2019-01-24T07:38:34.759Z,-8.44
2019-01-24T07:39:34.756Z,-8.37
2019-01-24T07:40:34.757Z,-8.36
2019-01-24T07:41:34.759Z,-8.44
2019-01-24T07:42:34.756Z,-8.45
2019-01-24T07:43:34.754Z,-8.42
2019-01-24T07:44:34.756Z,-8.42
2019-01-24T07:45:34.756Z,-8.40
2019-01-24T07:46:34.752Z,-8.33
2019-01-24T07:47:34.754Z,-8.42
2019-01-24T07:48:34.754Z,-8.40
2019-01-24T07:49:34.751Z,-8.42
2019-01-24T07:50:34.752Z,-8.39
2019-01-24T07:51:34.754Z,-8.37
2019-01-24T07:52:34.749Z,-8.30
2019-01-24T07:53:34.753Z,-8.24
2019-01-24T07:54:34.765Z,-8.19
2019-01-24T07:55:34.747Z,-8.23
2019-01-24T07:56:34.749Z,-8.13
2019-01-24T07:57:34.751Z,-8.12
2019-01-24T07:58:34.750Z,-8.11
2019-01-24T07:59:34.747Z,-8.11
2019-01-24T08:00:34.746Z,-8.11
2019-01-24T08:01:34.749Z,-8.06
2019-01-24T08:02:34.749Z,-8.15
2019-01-24T08:03:34.746Z,-8.21
2019-01-24T08:04:34.754Z,-8.37
2019-01-24T08:05:34.745Z,-8.50
2019-01-24T08:06:34.751Z,-8.70
2019-01-24T08:07:34.745Z,-8.68
2019-01-24T08:08:34.748Z,-8.86
2019-01-24T08:09:34.744Z,-8.98
2019-01-24T08:10:34.746Z,-9.07
2019-01-24T08:11:34.747Z,-9.00
2019-01-24T08:12:34.744Z,-9.04
2019-01-24T08:13:34.743Z,-9.10
2019-01-24T08:14:34.745Z,-9.02
2019-01-24T08:15:34.741Z,-9.19
2019-01-24T08:16:34.742Z,-9.15
2019-01-24T08:17:34.746Z,-9.05
2019-01-24T08:18:34.740Z,-8.93
2019-01-24T08:19:34.741Z,-8.83
2019-01-24T08:20:34.744Z,-8.69
2019-01-24T08:21:34.742Z,-8.60
2019-01-24T08:22:34.740Z,-8.58
2019-01-24T08:23:34.740Z,-8.39
2019-01-24T08:24:34.740Z,-8.39
2019-01-24T08:25:34.738Z,-8.37
2019-01-24T08:26:34.738Z,-8.27
2019-01-24T08:27:34.737Z,-8.18
2019-01-24T08:28:34.734Z,-8.16
2019-01-24T08:29:34.736Z,-8.21
2019-01-24T08:30:34.734Z,-8.16
2019-01-24T08:31:34.732Z,-8.11
2019-01-24T08:32:34.735Z,-8.09
2019-01-24T08:33:34.732Z,-8.08
2019-01-24T08:34:34.735Z,-8.12
2019-01-24T08:35:34.731Z,-8.11
2019-01-24T08:36:34.730Z,-8.08
2019-01-24T08:37:34.732Z,-8.31
2019-01-24T08:38:34.732Z,-8.36
2019-01-24T08:39:34.734Z,-8.39
2019-01-24T08:40:34.730Z,-8.37
2019-01-24T08:41:34.730Z,-8.26
2019-01-24T08:42:34.730Z,-8.23
2019-01-24T08:43:34.727Z,-8.16
2019-01-24T08:44:34.730Z,-8.11
2019-01-24T08:45:34.729Z,-8.12
2019-01-24T08:46:34.729Z,-8.08
2019-01-24T08:47:34.728Z,-8.26
2019-01-24T08:48:34.729Z,-8.30
2019-01-24T08:49:34.729Z,-8.11
2019-01-24T08:50:34.730Z,-8.06
2019-01-24T08:51:34.727Z,-8.13
2019-01-24T08:52:34.728Z,-8.18
2019-01-24T08:53:34.727Z,-7.99
2019-01-24T08:54:34.725Z,-7.90
2019-01-24T08:55:34.725Z,-7.80
2019-01-24T08:56:34.729Z,-7.96
2019-01-24T08:57:34.727Z,-7.96
2019-01-24T08:58:34.726Z,-7.72
2019-01-24T08:59:34.728Z,-7.62
2019-01-24T09:00:34.726Z,-7.72
2019-01-24T09:01:34.729Z,-7.69
2019-01-24T09:02:34.725Z,-7.57
2019-01-24T09:03:34.725Z,-7.39
2019-01-24T09:04:34.724Z,-7.37
2019-01-24T09:05:34.724Z,-7.43
2019-01-24T09:06:34.725Z,-7.62
2019-01-24T09:07:34.729Z,-7.61
2019-01-24T09:08:34.726Z,-7.79
2019-01-24T09:09:34.726Z,-7.97
2019-01-24T09:10:34.723Z,-7.75
2019-01-24T09:11:34.724Z,-7.80
2019-01-24T09:12:34.725Z,-7.75
2019-01-24T09:13:34.724Z,-7.71
2019-01-24T09:14:34.725Z,-7.41
2019-01-24T09:15:34.725Z,-7.26
2019-01-24T09:16:34.726Z,-7.07
2019-01-24T09:17:34.725Z,-6.97
2019-01-24T09:18:34.727Z,-7.07
2019-01-24T09:19:34.725Z,-6.84
2019-01-24T09:20:34.726Z,-6.79
2019-01-24T09:21:34.734Z,-6.77
2019-01-24T09:22:34.727Z,-6.86
2019-01-24T09:23:34.726Z,-6.74
2019-01-24T09:24:34.723Z,-6.59
2019-01-24T09:25:34.724Z,-6.61
2019-01-24T09:26:34.727Z,-6.34
2019-01-24T09:27:34.724Z,-6.36
2019-01-24T09:28:34.727Z,-6.11
2019-01-24T09:29:34.728Z,-6.04
2019-01-24T09:30:34.731Z,-5.94
2019-01-24T09:31:34.729Z,-6.43
2019-01-24T09:32:34.730Z,-6.28
2019-01-24T09:33:34.727Z,-6.59
2019-01-24T09:34:34.733Z,-6.42
2019-01-24T09:35:34.733Z,-6.28
2019-01-24T09:36:34.733Z,-6.15
2019-01-24T09:37:34.732Z,-5.90
2019-01-24T09:38:34.736Z,-6.13
2019-01-24T09:39:34.732Z,-6.66
2019-01-24T09:40:34.737Z,-6.55
2019-01-24T09:41:34.736Z,-6.39
2019-01-24T09:42:34.736Z,-6.23
2019-01-24T09:43:34.738Z,-6.13
2019-01-24T09:44:34.737Z,-5.82
2019-01-24T09:45:34.745Z,-5.98
2019-01-24T09:46:34.741Z,-6.05
2019-01-24T09:47:34.741Z,-5.74
2019-01-24T09:48:34.743Z,-5.93
2019-01-24T09:49:34.744Z,-6.46
2019-01-24T09:50:34.744Z,-6.49
2019-01-24T09:51:34.746Z,-6.15
2019-01-24T09:52:34.747Z,-6.13
2019-01-24T09:53:34.746Z,-6.42
2019-01-24T09:54:34.748Z,-6.37
2019-01-24T09:55:34.753Z,-6.18
2019-01-24T09:56:34.750Z,-6.05
2019-01-24T09:57:34.751Z,-5.92
2019-01-24T09:58:34.754Z,-5.86
2019-01-24T09:59:34.754Z,-6.03
2019-01-24T10:00:34.753Z,-5.71
2019-01-24T10:01:34.757Z,-5.64
2019-01-24T10:02:34.757Z,-5.53
2019-01-24T10:03:34.758Z,-5.65
2019-01-24T10:04:34.759Z,-5.62
2019-01-24T10:05:34.763Z,-5.92
2019-01-24T10:06:36.421Z,-5.82
2019-01-24T10:07:34.763Z,-5.72
2019-01-24T10:08:34.766Z,-5.65
2019-01-24T10:09:34.767Z,-5.43
2019-01-24T10:10:34.767Z,-5.46
2019-01-24T10:11:34.770Z,-5.25
2019-01-24T10:12:34.772Z,-5.23
2019-01-24T10:13:34.774Z,-4.86
2019-01-24T10:14:34.775Z,-5.03
2019-01-24T10:15:34.778Z,-4.83
2019-01-24T10:16:34.780Z,-4.50
2019-01-24T10:17:34.780Z,-5.14
2019-01-24T10:18:34.784Z,-5.26
2019-01-24T10:19:34.788Z,-5.69
2019-01-24T10:20:34.799Z,-6.00
2019-01-24T10:21:34.791Z,-5.27
2019-01-24T10:22:34.791Z,-4.77
2019-01-24T10:23:34.791Z,-4.49
2019-01-24T10:24:34.793Z,-4.58
2019-01-24T10:25:34.796Z,-4.06
2019-01-24T10:26:34.801Z,-3.86
2019-01-24T10:27:34.800Z,-3.66
2019-01-24T10:28:34.803Z,-3.43
2019-01-24T10:29:34.804Z,-3.33
2019-01-24T10:30:34.805Z,-3.52
2019-01-24T10:31:34.809Z,-3.21
2019-01-24T10:32:34.810Z,-3.39
2019-01-24T10:33:34.818Z,-3.45
2019-01-24T10:34:34.816Z,-3.36
2019-01-24T10:35:34.825Z,-2.86
2019-01-24T10:36:34.828Z,-2.96
2019-01-24T10:37:34.830Z,-3.66
2019-01-24T10:38:34.827Z,-3.38
2019-01-24T10:39:34.834Z,-3.00
2019-01-24T10:40:34.839Z,-2.71
2019-01-24T10:41:34.841Z,-1.94
2019-01-24T10:42:34.845Z,-1.37
2019-01-24T10:43:34.845Z,-1.80
2019-01-24T10:44:34.848Z,-1.49
2019-01-24T10:45:34.852Z,-1.19
2019-01-24T10:46:34.852Z,-0.95
2019-01-24T10:47:34.855Z,-0.73
2019-01-24T10:48:34.858Z,-0.51
2019-01-24T10:49:34.864Z,-0.25
2019-01-24T10:50:35.305Z,0.18
2019-01-24T10:51:34.871Z,0.23
2019-01-24T10:52:34.875Z,0.35
2019-01-24T10:53:34.879Z,0.58
2019-01-24T10:54:34.886Z,0.83
2019-01-24T10:55:34.888Z,0.57
2019-01-24T10:56:35.303Z,0.53
2019-01-24T10:57:34.898Z,0.42
2019-01-24T10:58:34.903Z,0.57
2019-01-24T10:59:34.906Z,-0.10
2019-01-24T11:00:34.909Z,0.21
2019-01-24T11:01:34.916Z,0.28
2019-01-24T11:02:34.923Z,0.36
2019-01-24T11:03:34.928Z,0.79
2019-01-24T11:04:34.933Z,0.78
2019-01-24T11:05:34.937Z,0.76
2019-01-24T11:06:34.941Z,1.12
2019-01-24T11:07:34.945Z,1.23
2019-01-24T11:08:34.949Z,1.00
2019-01-24T11:09:34.957Z,0.49
2019-01-24T11:10:34.962Z,0.87
2019-01-24T11:11:34.972Z,0.97
2019-01-24T11:12:34.975Z,1.41
2019-01-24T11:13:34.980Z,1.09
2019-01-24T11:14:34.985Z,0.15
2019-01-24T11:15:35.572Z,-0.76
2019-01-24T11:16:35.036Z,-1.28
2019-01-24T11:17:35.005Z,-1.70
2019-01-24T11:18:35.011Z,-1.02
2019-01-24T11:19:35.014Z,-1.38
2019-01-24T11:20:35.024Z,-2.46
2019-01-24T11:21:35.029Z,-2.71
2019-01-24T11:22:35.037Z,-2.71
2019-01-24T11:23:35.036Z,-3.36
2019-01-24T11:24:35.046Z,-2.79
2019-01-24T11:25:35.051Z,-2.43
2019-01-24T11:26:35.056Z,-2.74
2019-01-24T11:27:35.065Z,-2.45
2019-01-24T11:28:35.069Z,-2.26
2019-01-24T11:29:35.074Z,-1.82
2019-01-24T11:30:35.079Z,-1.73
2019-01-24T11:31:35.084Z,-2.49
2019-01-24T11:32:35.092Z,-2.71
2019-01-24T11:33:35.097Z,-2.40
2019-01-24T11:34:35.104Z,-2.53
2019-01-24T11:35:35.113Z,-2.29
2019-01-24T11:36:35.115Z,-2.78
2019-01-24T11:37:35.145Z,-3.07
2019-01-24T11:38:35.131Z,-2.84
2019-01-24T11:39:35.136Z,-2.77
2019-01-24T11:40:35.147Z,-3.18
2019-01-24T11:41:35.142Z,-3.23
2019-01-24T11:42:35.153Z,-3.33
2019-01-24T11:43:35.156Z,-3.45
2019-01-24T11:44:36.131Z,-3.36
2019-01-24T11:45:35.167Z,-3.56
2019-01-24T11:46:35.174Z,-4.86
2019-01-24T11:47:35.180Z,-4.79
2019-01-24T11:48:35.183Z,-5.04
2019-01-24T11:49:35.187Z,-5.11
2019-01-24T11:50:35.195Z,-4.95
2019-01-24T11:51:35.196Z,-4.77
2019-01-24T11:52:35.202Z,-4.43
2019-01-24T11:53:35.208Z,-4.06
2019-01-24T11:54:35.211Z,-3.96
2019-01-24T11:55:35.217Z,-3.79
2019-01-24T11:56:35.223Z,-4.12
2019-01-24T11:57:35.226Z,-4.03
2019-01-24T11:58:35.231Z,-3.75
2019-01-24T11:59:35.234Z,-3.46
2019-01-24T12:00:35.239Z,-3.49
2019-01-24T12:01:35.242Z,-3.45
2019-01-24T12:02:39.735Z,-3.42
2019-01-24T12:03:35.250Z,-3.45
2019-01-24T12:04:35.260Z,-3.54
2019-01-24T12:05:35.261Z,-4.50
2019-01-24T12:06:35.265Z,-4.77
2019-01-24T12:07:35.268Z,-4.54
2019-01-24T12:08:35.277Z,-3.93
2019-01-24T12:09:35.278Z,-3.20
2019-01-24T12:10:35.285Z,-3.56
2019-01-24T12:11:35.285Z,-4.22
2019-01-24T12:12:35.292Z,-5.29
2019-01-24T12:13:35.294Z,-4.75
2019-01-24T12:14:35.298Z,-4.10
2019-01-24T12:15:35.301Z,-3.56
2019-01-24T12:16:35.308Z,-3.67
2019-01-24T12:17:35.312Z,-3.09
2019-01-24T12:18:35.317Z,-2.39
2019-01-24T12:19:35.321Z,-2.34
2019-01-24T12:20:35.321Z,-2.73
2019-01-24T12:21:35.330Z,-2.91
2019-01-24T12:22:35.333Z,-3.20
2019-01-24T12:23:35.336Z,-3.02
2019-01-24T12:24:35.343Z,-2.82
2019-01-24T12:25:35.348Z,-3.07
2019-01-24T12:26:35.363Z,-2.58
2019-01-24T12:27:35.355Z,-2.43
2019-01-24T12:28:35.361Z,-3.03
2019-01-24T12:29:35.365Z,-3.17
2019-01-24T12:30:35.369Z,-2.85
2019-01-24T12:31:35.373Z,-2.63
2019-01-24T12:32:35.379Z,-2.70
2019-01-24T12:33:35.385Z,-2.03
2019-01-24T12:34:35.391Z,-1.43
2019-01-24T12:35:35.392Z,-0.72
2019-01-24T12:36:35.403Z,-0.26
2019-01-24T12:37:35.407Z,-0.55
2019-01-24T12:38:35.411Z,-1.59
2019-01-24T12:39:35.413Z,-2.79
2019-01-24T12:40:35.419Z,-2.61
2019-01-24T12:41:35.428Z,-2.43
2019-01-24T12:42:35.430Z,-2.43
2019-01-24T12:43:35.438Z,-2.61
2019-01-24T12:44:35.444Z,-2.74
2019-01-24T12:45:35.452Z,-2.66
2019-01-24T12:46:35.455Z,-2.77
2019-01-24T12:47:35.461Z,-2.12
2019-01-24T12:48:35.464Z,-1.66
2019-01-24T12:49:35.471Z,-0.89
2019-01-24T12:50:35.478Z,-0.03
2019-01-24T12:51:35.481Z,0.66
2019-01-24T12:52:35.488Z,1.06
2019-01-24T12:53:35.495Z,1.40